Time;durP1;ratioP1;P1;durP2;ratioP2;P2;SDS_P1;SDS_P2;PMS_P1;PMS_P2;Temp;Humidity;BMP_temperature;BMP_pressure;BME280_temperature;BME280_humidity;BME280_pressure;Samples;Min_cycle;Max_cycle;Signal;HPM_P1;HPM_P2
2021/05/04 00:01:17;;;;;;;3.10;1.90;;;;;;;13.06;24.45;100083.44;3541997;40;20031;-78
2021/05/04 00:03:45;;;;;;;3.08;2.00;;;;;;;13.04;24.52;100074.50;3545852;40;20281;-79
2021/05/04 00:06:12;;;;;;;3.13;2.10;;;;;;;13.04;24.68;100058.03;3544339;40;20035;-78
2021/05/04 00:08:40;;;;;;;3.20;1.83;;;;;;;13.04;24.31;100058.03;3541148;40;20380;-79
2021/05/04 00:11:10;;;;;;;3.45;2.05;;;;;;;13.02;24.38;100050.97;3530770;40;20296;-79
2021/05/04 00:13:37;;;;;;;4.55;2.00;;;;;;;13.02;24.45;100037.25;3522394;40;20058;-79
2021/05/04 00:16:05;;;;;;;3.45;1.95;;;;;;;13.02;24.52;100031.75;3539664;40;20054;-79
2021/05/04 00:18:34;;;;;;;3.72;2.08;;;;;;;13.00;24.61;100020.97;3540432;40;20338;-79
2021/05/04 00:21:02;;;;;;;4.00;1.83;;;;;;;12.98;24.77;100011.19;3541979;40;20027;-78
2021/05/04 00:23:30;;;;;;;2.75;1.80;;;;;;;12.99;24.78;100013.75;3540775;40;20082;-78
2021/05/04 00:25:57;;;;;;;3.20;1.70;;;;;;;12.99;24.53;100002.78;3539936;40;20030;-79
2021/05/04 00:28:24;;;;;;;2.85;1.80;;;;;;;12.99;24.70;99994.53;3540592;40;20039;-78
2021/05/04 00:30:57;;;;;;;3.20;1.95;;;;;;;12.98;24.65;99989.22;3540069;40;20046;-78
2021/05/04 00:33:24;;;;;;;2.15;1.70;;;;;;;12.99;24.67;99980.81;3540260;40;20117;-78
2021/05/04 00:35:52;;;;;;;3.00;1.90;;;;;;;13.01;24.73;99967.75;3535327;40;20083;-79
2021/05/04 00:38:19;;;;;;;3.28;1.90;;;;;;;12.99;24.70;99967.09;3541218;40;20320;-79
2021/05/04 00:40:47;;;;;;;2.55;1.80;;;;;;;13.00;24.80;99963.31;3540474;40;20061;-80
2021/05/04 00:43:14;;;;;;;2.83;1.80;;;;;;;13.02;24.67;99949.41;3540526;40;20336;-79
2021/05/04 00:45:42;;;;;;;2.92;1.73;;;;;;;13.02;24.76;99941.16;3540338;40;20099;-78
2021/05/04 00:48:10;;;;;;;2.95;1.70;;;;;;;13.01;24.53;99945.78;3540829;40;20042;-78
2021/05/04 00:50:37;;;;;;;2.90;1.58;;;;;;;13.01;24.85;99920.22;3541013;40;20038;-78
2021/05/04 00:53:05;;;;;;;2.88;1.73;;;;;;;13.01;24.72;99918.34;3541327;40;20379;-79
2021/05/04 00:55:33;;;;;;;3.25;1.77;;;;;;;13.02;24.86;99910.97;3541244;40;20051;-79
2021/05/04 00:58:02;;;;;;;3.80;1.90;;;;;;;13.02;24.98;99894.50;3540943;40;20296;-78
2021/05/04 01:00:30;;;;;;;2.40;1.52;;;;;;;13.01;24.79;99899.13;3543756;40;20074;-78
2021/05/04 01:02:57;;;;;;;3.58;1.85;;;;;;;13.01;24.80;99893.63;3540473;40;20050;-79
2021/05/04 01:05:26;;;;;;;2.42;1.63;;;;;;;13.01;25.01;99893.63;3540289;40;20041;-79
2021/05/04 01:07:53;;;;;;;2.40;1.63;;;;;;;13.02;24.77;99883.50;3540722;40;20042;-78
2021/05/04 01:10:22;;;;;;;3.20;1.77;;;;;;;13.03;25.00;99874.25;3540320;40;20034;-79
2021/05/04 01:12:50;;;;;;;2.75;1.70;;;;;;;13.04;24.73;99873.22;3539783;40;20482;-78
2021/05/04 01:15:17;;;;;;;2.10;1.42;;;;;;;13.03;24.72;99868.75;3539551;40;20179;-78
2021/05/04 01:17:44;;;;;;;3.45;1.60;;;;;;;13.03;24.81;99861.38;3539229;40;20380;-78
2021/05/04 01:20:12;;;;;;;3.00;1.50;;;;;;;13.05;25.09;99856.59;3538507;40;20031;-78
2021/05/04 01:22:40;;;;;;;2.78;1.60;;;;;;;13.06;24.69;99844.56;3535196;40;20038;-78
2021/05/04 01:25:08;;;;;;;2.35;1.40;;;;;;;13.06;24.70;99844.56;3538509;40;20341;-79
2021/05/04 01:27:36;;;;;;;2.90;1.48;;;;;;;13.07;24.68;99838.06;3537573;40;20281;-78
2021/05/04 01:30:04;;;;;;;3.28;1.58;;;;;;;13.10;24.93;99837.69;3547356;40;20045;-78
2021/05/04 01:32:32;;;;;;;2.92;1.50;;;;;;;13.09;24.59;99835.97;3542341;40;20035;-79
2021/05/04 01:35:00;;;;;;;1.95;1.23;;;;;;;13.11;24.66;99828.44;3542325;40;20059;-78
2021/05/04 01:37:28;;;;;;;2.53;1.40;;;;;;;13.11;24.76;99820.19;3540776;40;20051;-78
2021/05/04 01:39:56;;;;;;;2.08;1.30;;;;;;;13.14;24.73;99814.34;3543719;40;20093;-78
2021/05/04 01:42:23;;;;;;;2.65;1.42;;;;;;;13.13;24.51;99812.63;3542442;40;20034;-78
2021/05/04 01:44:50;;;;;;;2.60;1.35;;;;;;;13.16;25.04;99803.22;3539983;40;20102;-78
2021/05/04 01:47:19;;;;;;;3.28;1.40;;;;;;;13.16;24.67;99792.22;3525560;40;20164;-78
2021/05/04 01:49:48;;;;;;;2.47;1.20;;;;;;;13.16;24.86;99798.56;3539541;40;20117;-78
2021/05/04 01:52:16;;;;;;;3.00;1.60;;;;;;;13.20;24.59;99803.69;3529720;40;20372;-78
2021/05/04 01:54:44;;;;;;;2.50;1.20;;;;;;;13.19;24.77;99780.88;3533805;40;20077;-79
2021/05/04 01:57:12;;;;;;;3.28;1.25;;;;;;;13.21;24.38;99780.69;3537532;40;20373;-78
2021/05/04 01:59:42;;;;;;;2.75;1.08;;;;;;;13.20;24.54;99770.75;3541001;40;20067;-79
2021/05/04 02:02:10;;;;;;;3.88;1.13;;;;;;;13.22;24.31;99783.28;3552901;40;20035;-79
2021/05/04 02:04:37;;;;;;;3.88;1.25;;;;;;;13.24;24.13;99774.88;3541973;40;20063;-78
2021/05/04 02:07:04;;;;;;;1.98;1.10;;;;;;;13.24;24.27;99781.22;3539077;40;20073;-78
2021/05/04 02:09:33;;;;;;;3.35;1.45;;;;;;;13.27;24.18;99779.97;3540096;40;20093;-77
2021/05/04 02:12:00;;;;;;;2.50;1.20;;;;;;;13.27;23.71;99778.09;3539715;40;20031;-79
2021/05/04 02:14:29;;;;;;;5.25;1.40;;;;;;;13.32;24.06;99777.59;3539612;40;20452;-77
2021/05/04 02:16:56;;;;;;;4.15;1.10;;;;;;;13.31;24.44;99798.69;3537498;40;20369;-78
2021/05/04 02:19:24;;;;;;;3.67;1.02;;;;;;;13.24;24.71;99786.72;3540724;40;20042;-78
2021/05/04 02:21:51;;;;;;;3.75;1.20;;;;;;;13.21;24.52;99787.03;3539282;40;20035;-78
2021/05/04 02:24:18;;;;;;;2.33;1.05;;;;;;;13.15;24.85;99813.34;3547153;40;20058;-78
2021/05/04 02:26:47;;;;;;;3.22;1.15;;;;;;;13.10;25.25;99788.25;3537924;40;20439;-78
2021/05/04 02:29:14;;;;;;;2.67;1.00;;;;;;;13.10;25.56;99801.13;3540300;40;20074;-77
2021/05/04 02:31:42;;;;;;;3.25;1.17;;;;;;;13.07;26.21;99796.88;3537691;40;20031;-76
2021/05/04 02:34:09;;;;;;;2.53;1.10;;;;;;;13.04;26.62;99801.84;3539187;40;20070;-77
2021/05/04 02:36:37;;;;;;;2.25;1.00;;;;;;;12.93;26.79;99788.47;3539809;40;20329;-76
2021/05/04 02:39:06;;;;;;;2.10;0.85;;;;;;;12.86;26.77;99776.44;3538693;40;20059;-76
2021/05/04 02:41:34;;;;;;;2.40;0.90;;;;;;;12.76;27.28;99771.97;3537495;40;20094;-76
2021/05/04 02:44:02;;;;;;;1.75;1.00;;;;;;;12.65;27.31;99764.13;3540413;40;20145;-77
2021/05/04 02:46:30;;;;;;;2.35;1.00;;;;;;;12.58;27.78;99752.13;3537158;40;20058;-76
2021/05/04 02:48:59;;;;;;;2.63;0.90;;;;;;;12.51;28.15;99751.09;3540418;40;20031;-76
2021/05/04 02:51:26;;;;;;;2.25;0.80;;;;;;;12.43;28.05;99742.03;3542427;40;20061;-76
2021/05/04 02:53:53;;;;;;;4.10;0.95;;;;;;;12.37;28.34;99744.41;3538427;40;20141;-76
2021/05/04 02:56:20;;;;;;;5.70;1.20;;;;;;;12.31;28.53;99745.09;3543435;40;20057;-76
2021/05/04 02:58:48;;;;;;;3.92;1.30;;;;;;;12.27;28.89;99734.63;3540732;40;20059;-75
2021/05/04 03:01:15;;;;;;;2.60;1.20;;;;;;;12.24;29.10;99729.50;3535796;40;20071;-76
2021/05/04 03:03:42;;;;;;;3.47;1.35;;;;;;;12.18;29.39;99719.22;3539340;40;20106;-76
2021/05/04 03:06:11;;;;;;;3.92;1.40;;;;;;;12.14;29.57;99718.69;3536731;40;20054;-76
2021/05/04 03:08:38;;;;;;;5.57;1.48;;;;;;;12.09;29.74;99722.97;3540297;40;20061;-76
2021/05/04 03:11:06;;;;;;;2.35;1.40;;;;;;;12.06;29.86;99718.69;3537739;40;20356;-76
2021/05/04 03:13:33;;;;;;;1.95;1.10;;;;;;;12.03;30.01;99719.88;3540951;40;20486;-76
2021/05/04 03:16:01;;;;;;;2.85;1.10;;;;;;;12.00;30.55;99711.16;3528559;40;20384;-75
2021/05/04 03:18:30;;;;;;;1.95;1.08;;;;;;;11.98;30.21;99718.69;3543418;40;20038;-75
2021/05/04 03:21:06;;;;;;;1.88;1.20;;;;;;;11.98;31.26;99703.09;3543014;40;20026;-75
2021/05/04 03:23:35;;;;;;;1.30;0.85;;;;;;;11.92;30.65;99706.53;3541451;40;20069;-76
2021/05/04 03:26:03;;;;;;;2.15;1.00;;;;;;;11.86;30.51;99696.19;3545432;40;20324;-76
2021/05/04 03:28:31;;;;;;;1.80;0.98;;;;;;;11.83;30.87;99702.00;3543008;40;20056;-76
2021/05/04 03:31:01;;;;;;;1.90;1.00;;;;;;;11.80;30.97;99704.22;3540044;40;20030;-76
2021/05/04 03:33:45;;;;;;;1.67;0.85;;;;;;;11.75;31.30;99703.88;3537175;40;20057;-76
2021/05/04 03:36:33;;;;;;;2.00;1.00;;;;;;;11.70;31.18;99706.25;3539566;40;20442;-76
2021/05/04 03:39:21;;;;;;;1.42;0.90;;;;;;;11.66;31.30;99697.53;3541098;40;20061;-77
2021/05/04 03:42:08;;;;;;;1.67;0.90;;;;;;;11.60;31.03;99707.28;3541593;40;20473;-76
2021/05/04 03:44:55;;;;;;;2.53;1.30;;;;;;;11.56;31.25;99705.88;3540535;40;20073;-76
2021/05/04 03:47:44;;;;;;;1.77;1.05;;;;;;;11.53;31.57;99708.94;3541772;40;20055;-76
2021/05/04 03:50:28;;;;;;;1.73;1.08;;;;;;;11.45;31.63;99703.44;3539546;40;20054;-75
2021/05/04 03:53:16;;;;;;;1.95;0.90;;;;;;;11.42;31.71;99694.72;3536830;40;20412;-75
2021/05/04 03:56:04;;;;;;;2.38;1.05;;;;;;;11.39;31.92;99695.03;3534618;40;20054;-76
2021/05/04 03:58:51;;;;;;;1.95;0.90;;;;;;;11.33;31.96;99682.88;3544484;40;20054;-76
2021/05/04 04:01:38;;;;;;;2.53;1.08;;;;;;;11.31;31.84;99670.38;3532688;40;20047;-76
2021/05/04 04:04:26;;;;;;;1.55;0.90;;;;;;;11.27;32.18;99669.88;3538768;40;20385;-76
2021/05/04 04:07:13;;;;;;;1.63;1.00;;;;;;;11.24;32.26;99667.44;3541146;40;20108;-76
2021/05/04 04:10:01;;;;;;;2.03;1.00;;;;;;;11.21;32.31;99659.56;3541456;40;20051;-76
2021/05/04 04:12:49;;;;;;;2.13;0.95;;;;;;;11.19;32.70;99665.22;3541379;40;20094;-76
2021/05/04 04:15:36;;;;;;;1.42;1.00;;;;;;;11.15;32.70;99665.69;3537263;40;20090;-76
2021/05/04 04:18:23;;;;;;;1.13;0.82;;;;;;;11.12;32.66;99666.00;3541417;40;20403;-76
2021/05/04 04:21:10;;;;;;;2.22;0.90;;;;;;;11.08;32.63;99659.19;3547694;40;20058;-76
2021/05/04 04:23:57;;;;;;;1.50;0.90;;;;;;;11.06;32.91;99639.31;3540783;40;20050;-75
2021/05/04 04:26:44;;;;;;;2.15;1.00;;;;;;;11.03;32.82;99656.91;3537982;40;20047;-76
2021/05/04 04:29:33;;;;;;;2.17;0.93;;;;;;;11.03;32.96;99653.34;3542495;40;20435;-75
2021/05/04 04:32:20;;;;;;;3.53;1.42;;;;;;;11.02;33.19;99646.16;3539141;40;20071;-76
2021/05/04 04:35:08;;;;;;;0.82;0.82;;;;;;;11.02;33.09;99644.28;3534713;40;20315;-76
2021/05/04 04:37:55;;;;;;;1.35;1.05;;;;;;;11.00;33.22;99651.78;3541329;40;20054;-76
2021/05/04 04:40:43;;;;;;;1.52;0.85;;;;;;;11.01;33.23;99637.09;3540324;40;20087;-76
2021/05/04 04:43:30;;;;;;;1.50;0.90;;;;;;;11.00;33.09;99634.50;3537163;40;20361;-76
2021/05/04 04:46:18;;;;;;;1.45;1.02;;;;;;;11.01;33.30;99628.03;3539447;40;20067;-76
2021/05/04 04:49:05;;;;;;;2.33;1.00;;;;;;;11.00;33.23;99612.63;3539834;40;20042;-76
2021/05/04 04:51:53;;;;;;;1.38;0.90;;;;;;;10.99;33.07;99619.13;3540076;40;20055;-75
2021/05/04 04:54:39;;;;;;;1.70;1.00;;;;;;;10.97;33.21;99612.94;3538148;40;20079;-77
2021/05/04 04:57:27;;;;;;;1.60;1.00;;;;;;;10.99;33.12;99599.97;3543288;40;20065;-76
2021/05/04 05:00:15;;;;;;;1.50;1.00;;;;;;;10.97;33.25;99630.22;3535567;40;20043;-77
2021/05/04 05:03:03;;;;;;;2.25;1.20;;;;;;;10.97;33.35;99615.69;3538795;40;20133;-76
2021/05/04 05:05:51;;;;;;;1.58;0.85;;;;;;;10.94;33.20;99613.28;3541127;40;20081;-77
2021/05/04 05:08:38;;;;;;;1.73;0.93;;;;;;;10.95;33.19;99609.53;3542479;40;20050;-76
2021/05/04 05:11:25;;;;;;;1.98;1.00;;;;;;;10.94;33.12;99591.41;3539202;40;20074;-77
2021/05/04 05:14:13;;;;;;;1.75;1.10;;;;;;;10.94;33.41;99599.63;3539782;40;20136;-76
2021/05/04 05:17:00;;;;;;;1.45;1.00;;;;;;;10.93;33.23;99557.72;3540974;40;20061;-76
2021/05/04 05:19:48;;;;;;;1.33;1.00;;;;;;;10.94;33.33;99564.03;3544011;40;20070;-76
2021/05/04 05:22:35;;;;;;;1.95;1.00;;;;;;;10.91;33.16;99567.97;3545510;40;20058;-75
2021/05/04 05:25:22;;;;;;;1.63;1.00;;;;;;;10.90;33.28;99575.31;3543222;40;21741;-76
2021/05/04 05:28:14;;;;;;;2.33;1.10;;;;;;;10.91;33.37;99565.22;3546026;40;20047;-76
2021/05/04 05:31:01;;;;;;;1.00;0.90;;;;;;;10.89;33.39;99570.84;3537697;40;20073;-76
2021/05/04 05:33:48;;;;;;;0.85;0.70;;;;;;;10.89;33.26;99559.91;3539725;40;20062;-76
2021/05/04 05:36:36;;;;;;;1.95;1.00;;;;;;;10.91;33.40;99565.22;3531255;40;20067;-76
2021/05/04 05:39:24;;;;;;;2.00;1.13;;;;;;;10.90;33.46;99542.47;3535299;40;20051;-76
2021/05/04 05:41:51;;;;;;;1.08;0.90;;;;;;;10.90;33.44;99550.69;3530592;40;20051;-76
2021/05/04 05:44:38;;;;;;;1.48;0.98;;;;;;;10.89;33.54;99535.28;3527181;40;20055;-76
2021/05/04 05:47:06;;;;;;;2.03;0.90;;;;;;;10.92;33.60;99544.19;3526667;40;20055;-76
2021/05/04 05:49:34;;;;;;;2.95;1.10;;;;;;;10.90;33.55;99549.81;3526535;40;20074;-76
2021/05/04 05:52:02;;;;;;;2.08;1.00;;;;;;;10.90;33.70;99553.41;3530790;40;20313;-76
2021/05/04 05:54:31;;;;;;;1.60;1.00;;;;;;;10.87;33.85;99540.06;3527760;40;20137;-75
2021/05/04 05:56:58;;;;;;;1.77;0.73;;;;;;;10.87;33.72;99539.19;3531953;40;20087;-75
2021/05/04 05:59:26;;;;;;;1.92;0.90;;;;;;;10.86;34.01;99548.47;3529884;40;20083;-76
2021/05/04 06:01:53;;;;;;;1.20;0.90;;;;;;;10.85;33.97;99553.06;3532535;40;20055;-75
2021/05/04 06:04:20;;;;;;;1.90;0.80;;;;;;;10.83;34.08;99533.22;3531955;40;20066;-75
2021/05/04 06:06:48;;;;;;;1.65;0.95;;;;;;;10.82;34.00;99542.41;3533407;40;20047;-74
2021/05/04 06:09:16;;;;;;;2.33;1.10;;;;;;;10.85;34.24;99568.63;3528943;40;20342;-74
2021/05/04 06:11:44;;;;;;;2.90;0.90;;;;;;;10.84;34.35;99536.81;3526100;40;20058;-74
2021/05/04 06:14:11;;;;;;;2.50;0.90;;;;;;;10.83;34.25;99548.75;3541642;40;20055;-74
2021/05/04 06:16:39;;;;;;;1.27;0.93;;;;;;;10.84;34.64;99555.97;3528685;40;20057;-74
2021/05/04 06:19:06;;;;;;;2.80;1.15;;;;;;;10.85;34.54;99538.53;3530878;40;20050;-75
2021/05/04 06:21:34;;;;;;;1.98;1.00;;;;;;;10.86;34.61;99535.63;3522533;40;20428;-74
2021/05/04 06:24:01;;;;;;;1.77;0.90;;;;;;;10.84;34.77;99540.41;3525128;40;20051;-73
2021/05/04 06:26:30;;;;;;;2.47;0.90;;;;;;;10.89;34.76;99539.91;3524161;40;20081;-73
2021/05/04 06:29:16;;;;;;;1.60;1.08;;;;;;;10.89;35.34;99526.22;3522959;40;20066;-77
2021/05/04 06:31:45;;;;;;;1.45;0.90;;;;;;;10.89;34.95;99537.16;3526088;40;20047;-74
2021/05/04 06:34:13;;;;;;;1.77;1.00;;;;;;;10.92;35.09;99534.09;3522527;40;20305;-74
2021/05/04 06:36:41;;;;;;;2.15;1.00;;;;;;;10.94;35.07;99540.28;3522255;40;20081;-74
2021/05/04 06:39:10;;;;;;;3.08;1.50;;;;;;;10.97;35.19;99525.38;3521790;40;20482;-75
2021/05/04 06:41:43;;;;;;;1.97;1.10;;;;;;;11.00;35.41;99542.34;3523278;40;20070;-74
2021/05/04 06:44:12;;;;;;;3.00;1.20;;;;;;;11.00;35.22;99539.59;3524225;40;20055;-73
2021/05/04 06:46:40;;;;;;;2.60;1.10;;;;;;;11.02;35.36;99534.81;3525103;40;20084;-76
2021/05/04 06:49:10;;;;;;;2.28;1.10;;;;;;;11.04;35.43;99530.00;3530721;40;20039;-76
2021/05/04 06:51:37;;;;;;;1.70;1.17;;;;;;;11.05;35.40;99533.59;3530385;40;20047;-78
2021/05/04 06:54:05;;;;;;;2.42;1.13;;;;;;;11.07;35.15;99535.16;3530188;40;20051;-79
2021/05/04 06:56:32;;;;;;;3.13;1.20;;;;;;;11.07;35.52;99523.34;3527461;40;20084;-72
2021/05/04 06:59:00;;;;;;;2.97;1.20;;;;;;;11.08;35.57;99528.66;3523431;40;20062;-74
2021/05/04 07:01:28;;;;;;;2.72;1.15;;;;;;;11.08;35.61;99527.81;3523214;40;20091;-73
2021/05/04 07:03:55;;;;;;;1.98;1.08;;;;;;;11.08;35.61;99528.66;3525195;40;20043;-73
2021/05/04 07:06:23;;;;;;;3.47;1.08;;;;;;;11.10;35.63;99515.69;3525521;40;20447;-74
2021/05/04 07:08:50;;;;;;;3.05;1.02;;;;;;;11.13;35.83;99506.25;3532365;40;20071;-75
2021/05/04 07:11:18;;;;;;;3.20;1.20;;;;;;;11.15;35.91;99490.53;3530583;40;20055;-77
2021/05/04 07:13:45;;;;;;;2.22;0.90;;;;;;;11.16;35.71;99497.72;3527763;40;20395;-75
2021/05/04 07:16:14;;;;;;;1.05;0.90;;;;;;;11.17;35.99;99503.03;3524219;40;20064;-74
2021/05/04 07:18:42;;;;;;;2.55;1.17;;;;;;;11.19;35.86;99486.44;3538496;40;20055;-74
2021/05/04 07:21:09;;;;;;;2.13;1.05;;;;;;;11.23;35.91;99494.13;3527384;40;20215;-74
2021/05/04 07:23:37;;;;;;;2.50;0.90;;;;;;;11.26;35.92;99498.41;3529090;40;20400;-74
2021/05/04 07:26:05;;;;;;;4.55;0.88;;;;;;;11.27;35.79;99509.22;3531909;40;20095;-75
2021/05/04 07:28:33;;;;;;;2.00;0.88;;;;;;;11.27;35.86;99500.13;3530748;40;20028;-74
2021/05/04 07:31:01;;;;;;;2.55;1.10;;;;;;;11.29;36.12;99506.28;3531069;40;20059;-74
2021/05/04 07:33:29;;;;;;;2.38;1.10;;;;;;;11.32;36.16;99505.94;3531603;40;20067;-74
2021/05/04 07:35:58;;;;;;;2.33;0.90;;;;;;;11.31;36.30;99523.41;3524721;40;20061;-74
2021/05/04 07:38:25;;;;;;;2.05;0.77;;;;;;;11.32;36.08;99499.63;3526483;40;20088;-75
2021/05/04 07:40:53;;;;;;;2.92;1.00;;;;;;;11.35;36.20;99493.81;3532231;40;20067;-74
2021/05/04 07:43:22;;;;;;;1.55;0.88;;;;;;;11.36;36.00;99506.47;3530919;40;20054;-74
2021/05/04 07:45:49;;;;;;;1.65;1.00;;;;;;;11.37;36.27;99497.22;3528129;40;20444;-75
2021/05/04 07:48:17;;;;;;;1.65;0.90;;;;;;;11.37;36.27;99503.53;3527020;40;20042;-75
2021/05/04 07:50:47;;;;;;;2.20;0.70;;;;;;;11.40;36.71;99486.78;3528145;40;20467;-75
2021/05/04 07:53:14;;;;;;;1.83;1.00;;;;;;;11.40;36.79;99505.09;3529554;40;20054;-74
2021/05/04 07:55:42;;;;;;;1.65;0.90;;;;;;;11.42;36.65;99489.34;3527177;40;20066;-75
2021/05/04 07:58:09;;;;;;;1.45;0.80;;;;;;;11.43;36.96;99505.63;3529102;40;20058;-74
2021/05/04 08:00:37;;;;;;;2.05;1.10;;;;;;;11.41;37.02;99502.19;3527815;40;20058;-75
2021/05/04 08:03:05;;;;;;;1.63;0.80;;;;;;;11.42;37.11;99490.22;3529086;40;20055;-75
2021/05/04 08:05:33;;;;;;;2.95;0.70;;;;;;;11.41;37.45;99498.59;3527417;40;20333;-74
2021/05/04 08:08:01;;;;;;;1.83;0.82;;;;;;;11.43;37.41;99489.19;3529857;40;20063;-74
2021/05/04 08:10:29;;;;;;;1.10;0.68;;;;;;;11.40;37.26;99491.41;3535937;40;20055;-75
2021/05/04 08:12:56;;;;;;;1.50;0.75;;;;;;;11.39;37.38;99493.28;3529473;40;20066;-75
2021/05/04 08:15:25;;;;;;;0.88;0.73;;;;;;;11.42;37.47;99487.47;3529678;40;20047;-75
2021/05/04 08:17:55;;;;;;;2.38;0.80;;;;;;;11.42;37.16;99489.34;3529615;40;20331;-75
2021/05/04 08:20:28;;;;;;;1.83;0.90;;;;;;;11.45;37.53;99476.16;3529870;40;20309;-75
2021/05/04 08:22:55;;;;;;;1.95;0.93;;;;;;;11.43;37.32;99499.28;3537138;40;20055;-75
2021/05/04 08:25:25;;;;;;;2.40;0.85;;;;;;;11.47;37.69;99486.94;3530149;40;20054;-75
2021/05/04 08:27:53;;;;;;;1.85;0.70;;;;;;;11.49;37.54;99482.16;3536743;40;20055;-75
2021/05/04 08:30:22;;;;;;;1.98;0.70;;;;;;;11.50;37.48;99490.22;3536307;40;20058;-74
2021/05/04 08:32:56;;;;;;;1.95;0.80;;;;;;;11.53;37.58;99484.38;3528705;40;20067;-74
2021/05/04 08:35:33;;;;;;;2.03;1.20;;;;;;;11.59;37.57;99502.03;3535821;40;20127;-75
2021/05/04 08:38:01;;;;;;;1.77;0.80;;;;;;;11.61;37.59;99492.59;3529592;40;20066;-75
2021/05/04 08:40:30;;;;;;;1.05;0.70;;;;;;;11.65;37.59;99476.66;3534989;40;20062;-74
2021/05/04 08:42:57;;;;;;;1.45;0.80;;;;;;;11.68;37.88;99483.69;3529544;40;20059;-75
2021/05/04 08:45:26;;;;;;;1.75;0.75;;;;;;;11.73;38.03;99482.13;3534671;40;20408;-74
2021/05/04 08:47:54;;;;;;;2.50;0.90;;;;;;;11.75;38.01;99471.00;3529327;40;20095;-75
2021/05/04 08:50:22;;;;;;;1.38;0.80;;;;;;;11.77;38.30;99475.25;3533128;40;20400;-75
2021/05/04 08:52:51;;;;;;;3.97;1.40;;;;;;;11.81;37.95;99470.31;3528744;40;20063;-75
2021/05/04 08:55:19;;;;;;;2.10;0.90;;;;;;;11.84;38.02;99457.13;3529068;40;20051;-74
2021/05/04 08:57:47;;;;;;;1.13;0.80;;;;;;;11.89;37.92;99460.19;3528568;40;20137;-75
2021/05/04 09:00:15;;;;;;;2.30;0.95;;;;;;;11.91;37.84;99438.13;3533367;40;20302;-75
2021/05/04 09:03:02;;;;;;;2.53;0.70;;;;;;;11.93;38.11;99447.03;3528569;40;20444;-74
2021/05/04 09:05:37;;;;;;;3.50;0.80;;;;;;;11.94;38.09;99444.09;3534591;40;20172;-74
2021/05/04 09:08:09;;;;;;;1.67;0.98;;;;;;;11.94;37.65;99437.75;3529028;40;20059;-74
2021/05/04 09:10:44;;;;;;;2.30;0.95;;;;;;;11.93;37.60;99439.69;3529414;40;20078;-75
2021/05/04 09:13:20;;;;;;;1.63;0.73;;;;;;;11.99;38.23;99413.44;3529382;40;20055;-75
2021/05/04 09:21:34;;;;;;;1.55;1.00;;;;;;;11.99;37.63;99400.59;3533954;40;20051;-75
2021/05/04 09:24:19;;;;;;;1.70;0.90;;;;;;;12.02;37.62;99413.91;3529703;40;20051;-75
2021/05/04 09:26:47;;;;;;;1.55;1.00;;;;;;;12.01;37.91;99431.44;3525266;40;20441;-76
2021/05/04 09:29:17;;;;;;;3.10;1.10;;;;;;;12.05;37.94;99437.38;3524282;40;20050;-77
2021/05/04 09:31:45;;;;;;;3.00;1.10;;;;;;;12.03;38.17;99437.56;3527045;40;20141;-75
2021/05/04 09:34:14;;;;;;;2.00;1.00;;;;;;;12.06;38.60;99446.47;3524106;40;20054;-74
2021/05/04 09:36:45;;;;;;;2.58;0.90;;;;;;;12.02;38.74;99440.47;3530821;40;20063;-75
2021/05/04 09:39:24;;;;;;;2.45;1.10;;;;;;;12.00;38.74;99448.91;3528032;40;21573;-74
2021/05/04 09:41:51;;;;;;;1.73;0.90;;;;;;;11.96;39.08;99460.38;3525391;40;20039;-73
2021/05/04 09:44:38;;;;;;;2.03;1.00;;;;;;;11.98;39.50;99474.75;3526342;40;20397;-73
2021/05/04 09:47:07;;;;;;;2.03;1.10;;;;;;;11.91;39.24;99471.88;3528252;40;20042;-72
2021/05/04 09:49:37;;;;;;;1.80;1.05;;;;;;;11.89;39.47;99462.06;3526470;40;20040;-74
2021/05/04 09:52:22;;;;;;;1.92;1.10;;;;;;;11.92;41.03;99456.28;3526583;40;20062;-74
2021/05/04 09:54:49;;;;;;;2.28;0.98;;;;;;;11.89;40.30;99432.78;3534781;40;20062;-76
2021/05/04 09:57:34;;;;;;;1.50;0.93;;;;;;;11.97;40.74;99435.53;3524907;40;20066;-76
2021/05/04 10:00:06;;;;;;;2.85;1.20;;;;;;;12.00;41.14;99440.69;3526185;40;20063;-73
2021/05/04 10:02:35;;;;;;;2.53;0.90;;;;;;;12.01;40.37;99441.53;3532446;40;20142;-76
2021/05/04 10:05:04;;;;;;;1.33;0.95;;;;;;;12.07;40.44;99431.75;3531522;40;20278;-73
2021/05/04 10:07:32;;;;;;;1.83;1.20;;;;;;;12.09;40.72;99435.16;3524538;40;20035;-72
2021/05/04 10:10:01;;;;;;;2.60;1.05;;;;;;;12.16;40.88;99422.47;3526917;40;20083;-72
2021/05/04 10:12:31;;;;;;;2.70;1.20;;;;;;;12.22;40.63;99438.19;3526667;40;20062;-72
2021/05/04 10:15:04;;;;;;;2.70;1.23;;;;;;;12.26;40.59;99407.50;3527525;40;20086;-73
2021/05/04 10:17:32;;;;;;;3.17;1.30;;;;;;;12.30;40.71;99410.72;3525532;40;20062;-73
2021/05/04 10:20:03;;;;;;;3.13;1.10;;;;;;;12.36;40.66;99459.38;3525160;40;20051;-75
2021/05/04 10:22:31;;;;;;;1.88;1.00;;;;;;;12.34;40.73;99470.53;3528197;40;20062;-74
2021/05/04 10:24:59;;;;;;;2.17;0.90;;;;;;;12.33;40.69;99457.84;3531960;40;20051;-74
2021/05/04 10:27:26;;;;;;;2.20;0.80;;;;;;;12.32;40.83;99467.13;3523213;40;20047;-74
2021/05/04 10:29:54;;;;;;;1.45;0.80;;;;;;;12.30;40.64;99449.97;3530533;40;20304;-74
2021/05/04 10:32:54;;;;;;;2.53;0.80;;;;;;;12.28;40.79;99441.06;3530756;40;20090;-74
2021/05/04 10:35:48;;;;;;;2.00;0.80;;;;;;;12.28;41.39;99443.81;3498590;41;20462;-74
2021/05/04 10:38:16;;;;;;;3.15;0.90;;;;;;;12.29;41.61;99440.03;3524765;40;20087;-74
2021/05/04 10:40:45;;;;;;;2.75;1.05;;;;;;;12.31;41.86;99443.47;3534954;40;20487;-75
2021/05/04 10:43:38;;;;;;;2.45;1.10;;;;;;;12.38;42.10;99440.84;3533046;40;20055;-75
2021/05/04 10:46:09;;;;;;;2.20;1.27;;;;;;;12.40;42.43;99447.03;3523018;40;20054;-76
2021/05/04 10:48:40;;;;;;;2.72;1.10;;;;;;;12.52;42.09;99431.00;3528670;40;20045;-75
2021/05/04 10:51:13;;;;;;;4.95;1.48;;;;;;;12.58;42.22;99433.06;3530502;40;20051;-75
2021/05/04 10:54:03;;;;;;;4.25;1.45;;;;;;;12.66;40.86;99441.25;3522508;40;20092;-75
2021/05/04 10:56:36;;;;;;;3.53;1.30;;;;;;;12.71;40.51;99449.78;3531005;40;20081;-75
2021/05/04 10:59:05;;;;;;;3.75;1.30;;;;;;;12.75;39.78;99441.00;3528737;40;20139;-75
2021/05/04 11:01:33;;;;;;;4.85;1.45;;;;;;;12.80;39.02;99430.34;3529487;40;20087;-75
2021/05/04 11:04:02;;;;;;;4.15;1.48;;;;;;;12.83;38.81;99459.31;3528148;40;20144;-74
2021/05/04 11:06:49;;;;;;;4.68;1.50;;;;;;;12.85;38.99;99450.88;3528514;40;20062;-74
2021/05/04 11:09:20;;;;;;;6.22;1.70;;;;;;;12.92;38.49;99451.91;3520829;40;20051;-78
2021/05/04 11:11:52;;;;;;;4.03;1.50;;;;;;;12.97;38.63;99444.84;3532033;40;20058;-75
2021/05/04 11:14:30;;;;;;;3.85;1.42;;;;;;;12.99;38.40;99445.50;3528800;40;20063;-75
2021/05/04 11:17:16;;;;;;;4.15;1.42;;;;;;;13.07;37.89;99431.72;3525774;40;20066;-75
2021/05/04 11:19:45;;;;;;;4.50;1.50;;;;;;;13.12;37.91;99444.88;3533676;40;20393;-74
2021/05/04 11:22:22;;;;;;;4.68;1.45;;;;;;;13.23;37.19;99419.75;3528833;40;20090;-75
2021/05/04 11:24:52;;;;;;;4.35;1.67;;;;;;;13.29;37.01;99445.63;3528479;40;20064;-74
2021/05/04 11:27:25;;;;;;;3.65;1.27;;;;;;;13.33;36.99;99486.28;3528642;40;20059;-75
2021/05/04 11:29:58;;;;;;;5.25;1.40;;;;;;;13.39;36.19;99471.81;3529983;40;20055;-78
2021/05/04 11:32:37;;;;;;;3.13;1.15;;;;;;;13.44;35.90;99521.53;3530099;40;20061;-76
2021/05/04 11:35:10;;;;;;;4.60;1.20;;;;;;;13.44;35.84;99515.19;3524149;40;20083;-76
2021/05/04 11:37:45;;;;;;;4.13;1.45;;;;;;;13.44;35.06;99517.94;3528618;40;20051;-76
2021/05/04 11:40:18;;;;;;;4.10;1.40;;;;;;;13.44;35.35;99527.03;3534159;40;20069;-78
2021/05/04 11:42:48;;;;;;;5.15;1.52;;;;;;;13.46;35.02;99515.88;3535752;40;20047;-77
2021/05/04 11:45:18;;;;;;;5.07;1.45;;;;;;;13.43;34.51;99521.72;3532075;40;20073;-74
2021/05/04 11:47:46;;;;;;;5.95;1.48;;;;;;;13.42;34.30;99482.41;3527799;40;20109;-74
2021/05/04 11:50:17;;;;;;;4.68;1.38;;;;;;;13.41;34.18;99507.34;3528494;40;20063;-75
2021/05/04 11:52:46;;;;;;;4.55;1.42;;;;;;;13.40;34.18;99516.59;3533422;40;20122;-76
2021/05/04 11:55:17;;;;;;;5.85;1.80;;;;;;;13.40;34.12;99533.09;3526085;40;20400;-75
2021/05/04 11:57:47;;;;;;;5.07;1.58;;;;;;;13.42;34.30;99522.75;3530859;40;20086;-74
2021/05/04 12:00:20;;;;;;;6.78;1.60;;;;;;;13.47;33.75;99523.06;3529295;40;20320;-78
2021/05/04 12:02:48;;;;;;;8.35;2.13;;;;;;;13.49;33.40;99521.00;3530514;40;20035;-76
2021/05/04 12:05:25;;;;;;;5.32;1.65;;;;;;;13.54;33.62;99541.38;3528706;40;20063;-77